createdAt,value
2023-08-20T00:04:49.662Z,101047.84
2023-08-20T00:09:46.263Z,101020.81
2023-08-20T00:15:06.009Z,101023.69
2023-08-20T00:20:10.174Z,101029.25
2023-08-20T00:25:07.232Z,101029.59
2023-08-20T00:30:04.986Z,101013.16
2023-08-20T00:35:02.108Z,100974.66
2023-08-20T00:39:59.102Z,100947.25
2023-08-20T00:44:55.522Z,100914.16
2023-08-20T00:49:52.072Z,100899.63
2023-08-20T00:54:49.192Z,100891.88
2023-08-20T00:59:49.691Z,100892.56
2023-08-20T01:04:48.217Z,100888.31
2023-08-20T01:10:15.216Z,100882.75
2023-08-20T01:15:14.994Z,100877.69
2023-08-20T01:20:12.644Z,100883.38
2023-08-20T01:25:27.723Z,100876.66
2023-08-20T01:30:25.818Z,100880.31
2023-08-20T01:35:25.311Z,100874.22
2023-08-20T01:40:21.774Z,100881.66
2023-08-20T01:45:19.676Z,100876.09
2023-08-20T01:50:16.441Z,100886.28
2023-08-20T01:55:13.077Z,100895.47
2023-08-20T02:00:10.197Z,100890.03
2023-08-20T02:05:06.985Z,100893.19
2023-08-20T02:10:04.080Z,100887.09
2023-08-20T02:15:00.586Z,100896.81
2023-08-20T02:19:57.040Z,100892.50
2023-08-20T02:24:53.481Z,100893.56
2023-08-20T02:29:50.139Z,100921.88
2023-08-20T02:34:51.130Z,100945.16
2023-08-20T02:39:47.754Z,100947.38
2023-08-20T02:44:44.166Z,100953.28
2023-08-20T02:49:40.604Z,100956.03
2023-08-20T02:54:37.093Z,100965.31
2023-08-20T02:59:33.571Z,100971.50
2023-08-20T03:04:30.477Z,100974.22
2023-08-20T03:09:26.946Z,100974.75
2023-08-20T03:14:25.394Z,100964.81
2023-08-20T03:19:23.135Z,100952.16
2023-08-20T03:24:19.636Z,100946.81
2023-08-20T03:29:16.063Z,100942.19
2023-08-20T03:34:12.517Z,100936.66
2023-08-20T03:39:09.446Z,100934.94
2023-08-20T03:44:06.225Z,100934.25
2023-08-20T03:49:02.963Z,100915.50
2023-08-20T03:53:59.617Z,100924.03
2023-08-20T03:58:56.608Z,100932.75
2023-08-20T04:03:53.100Z,100954.34
2023-08-20T04:08:49.919Z,100965.97
2023-08-20T04:13:46.675Z,100953.47
2023-08-20T04:18:43.107Z,100953.97
2023-08-20T04:23:39.533Z,100956.97
2023-08-20T04:28:35.951Z,100956.25
2023-08-20T04:33:32.388Z,100970.41
2023-08-20T04:38:28.958Z,100969.25
2023-08-20T04:43:25.397Z,100978.56
2023-08-20T04:48:21.940Z,100975.91
2023-08-20T04:53:18.728Z,100988.44
2023-08-20T04:58:15.155Z,100976.44
2023-08-20T05:03:11.696Z,100974.63
2023-08-20T05:08:08.982Z,100970.63
2023-08-20T05:13:05.862Z,100961.81
2023-08-20T05:18:02.437Z,100958.44
2023-08-20T05:22:58.939Z,100966.75
2023-08-20T05:27:55.348Z,100960.25
2023-08-20T05:32:51.842Z,100957.94
2023-08-20T05:37:48.301Z,100960.03
2023-08-20T05:42:44.718Z,100968.88
2023-08-20T05:47:41.185Z,100972.31
2023-08-20T05:52:37.928Z,100956.13
2023-08-20T05:57:34.758Z,100957.75
2023-08-20T06:02:31.384Z,100945.09
2023-08-20T06:07:28.153Z,100950.13
2023-08-20T06:12:24.931Z,100962.03
2023-08-20T06:17:21.997Z,100965.25
2023-08-20T06:22:18.496Z,100970.22
2023-08-20T06:27:14.978Z,100965.19
2023-08-20T06:32:11.452Z,100968.53
2023-08-20T06:37:07.935Z,100981.44
2023-08-20T06:42:04.795Z,100977.72
2023-08-20T06:47:01.283Z,100982.19
2023-08-20T06:51:57.707Z,100976.09
2023-08-20T06:56:54.157Z,100973.28
2023-08-20T07:01:50.649Z,100972.66
2023-08-20T07:06:47.151Z,100972.47
2023-08-20T07:11:43.891Z,100973.44
2023-08-20T07:16:40.586Z,100977.22
2023-08-20T07:21:37.057Z,100977.13
2023-08-20T07:26:33.490Z,100972.38
2023-08-20T07:31:32.491Z,100981.28
2023-08-20T07:36:29.215Z,100967.97
2023-08-20T07:41:26.267Z,100964.53
2023-08-20T07:46:22.741Z,100960.72
2023-08-20T07:51:19.525Z,100969.00
2023-08-20T07:56:15.986Z,100971.22
2023-08-20T08:01:14.617Z,100967.47
2023-08-20T08:06:11.154Z,100968.25
2023-08-20T08:11:07.675Z,100966.88
2023-08-20T08:16:04.175Z,100966.50
2023-08-20T08:21:00.592Z,100972.38
2023-08-20T08:25:57.153Z,100978.66
2023-08-20T08:30:53.682Z,100987.78
2023-08-20T08:35:50.272Z,100979.19
2023-08-20T08:40:46.876Z,100970.34
2023-08-20T08:45:47.794Z,100979.53
2023-08-20T08:50:44.546Z,100969.41
2023-08-20T08:55:43.326Z,100985.38
2023-08-20T09:00:40.278Z,100990.84
2023-08-20T09:06:04.034Z,100979.19
2023-08-20T09:11:02.152Z,100976.50
2023-08-20T09:16:00.384Z,100978.44
2023-08-20T09:20:58.216Z,100972.56
2023-08-20T09:25:54.662Z,100969.38
2023-08-20T09:30:56.539Z,100970.91
2023-08-20T09:35:55.076Z,100967.75
2023-08-20T09:40:53.723Z,100967.09
2023-08-20T09:45:51.203Z,100965.44
2023-08-20T09:50:49.246Z,100977.84
2023-08-20T09:55:46.118Z,100977.19
2023-08-20T10:00:43.269Z,100978.41
2023-08-20T10:05:39.737Z,100984.97
2023-08-20T10:10:36.072Z,100984.91
2023-08-20T10:15:34.281Z,100978.47
2023-08-20T10:20:34.035Z,100972.66
2023-08-20T10:25:31.291Z,100980.78
2023-08-20T10:30:27.780Z,100976.34
2023-08-20T10:35:28.566Z,100977.31
2023-08-20T10:40:59.147Z,100983.91
2023-08-20T10:46:20.425Z,100975.69
2023-08-20T10:51:19.313Z,100978.34
2023-08-20T10:56:17.173Z,100962.31
2023-08-20T11:01:19.761Z,100971.81
2023-08-20T11:06:17.089Z,100968.75
2023-08-20T11:11:14.136Z,100976.47
2023-08-20T11:16:10.836Z,100974.16
2023-08-20T11:21:09.114Z,100976.66
2023-08-20T11:26:05.554Z,100988.41
2023-08-20T11:31:02.665Z,100998.66
2023-08-20T11:35:59.183Z,100990.53
2023-08-20T11:40:55.641Z,100982.00
2023-08-20T11:45:52.188Z,100982.63
2023-08-20T11:50:48.829Z,100982.16
2023-08-20T11:55:45.362Z,100977.03
2023-08-20T12:00:42.314Z,100971.91
2023-08-20T12:05:43.178Z,100977.63
2023-08-20T12:10:43.405Z,100967.66
2023-08-20T12:15:39.840Z,100954.00
2023-08-20T12:20:36.948Z,100950.28
2023-08-20T12:25:35.379Z,100943.16
2023-08-20T12:30:34.964Z,100945.34
2023-08-20T12:35:33.395Z,100941.03
2023-08-20T12:40:30.133Z,100937.69
2023-08-20T12:45:26.887Z,100948.16
2023-08-20T12:50:23.297Z,100943.75
2023-08-20T12:55:19.934Z,100951.84
2023-08-20T13:00:17.386Z,100945.72
2023-08-20T13:05:14.694Z,100940.72
2023-08-20T13:10:11.908Z,100939.94
2023-08-20T13:15:10.828Z,100938.69
2023-08-20T13:20:09.339Z,100937.13
2023-08-20T13:25:06.646Z,100930.13
2023-08-20T13:30:04.047Z,100936.97
2023-08-20T13:35:00.508Z,100927.13
2023-08-20T13:39:56.911Z,100931.88
2023-08-20T13:44:53.381Z,100920.31
2023-08-20T13:49:49.772Z,100918.56
2023-08-20T13:54:46.923Z,100921.50
2023-08-20T13:59:43.357Z,100917.03
2023-08-20T14:04:39.790Z,100919.69
2023-08-20T14:09:37.147Z,100921.38
2023-08-20T14:14:33.669Z,100915.84
2023-08-20T14:19:30.073Z,100913.53
2023-08-20T14:24:26.494Z,100918.75
2023-08-20T14:29:22.926Z,100917.72
2023-08-20T14:34:19.313Z,100902.59
2023-08-20T14:39:15.819Z,100906.47
2023-08-20T14:44:12.289Z,100903.56
2023-08-20T14:49:08.786Z,100902.16
2023-08-20T14:54:05.468Z,100899.91
2023-08-20T14:59:01.856Z,100896.13
2023-08-20T15:03:58.394Z,100899.50
2023-08-20T15:08:54.847Z,100907.13
2023-08-20T15:13:53.118Z,100907.13
2023-08-20T15:18:49.532Z,100906.13
2023-08-20T15:23:46.007Z,100907.75
2023-08-20T15:28:42.393Z,100898.44
2023-08-20T15:33:38.787Z,100899.66
2023-08-20T15:38:35.367Z,100904.78
2023-08-20T15:43:31.831Z,100910.91
2023-08-20T15:48:28.306Z,100909.00
2023-08-20T15:53:24.901Z,100900.47
2023-08-20T15:58:21.386Z,100906.50
2023-08-20T16:03:17.997Z,100908.41
2023-08-20T16:08:14.545Z,100909.78
2023-08-20T16:13:10.995Z,100899.50
2023-08-20T16:18:07.701Z,100897.31
2023-08-20T16:23:04.176Z,100902.16
2023-08-20T16:28:00.703Z,100897.13
2023-08-20T16:32:57.148Z,100893.59
2023-08-20T16:37:53.701Z,100889.81
2023-08-20T16:42:50.491Z,100898.44
2023-08-20T16:47:46.882Z,100900.59
2023-08-20T16:52:43.312Z,100894.13
2023-08-20T16:57:40.534Z,100901.09
2023-08-20T17:02:37.190Z,100897.94
2023-08-20T17:07:33.714Z,100900.28
2023-08-20T17:12:30.158Z,100902.78
2023-08-20T17:17:30.407Z,100900.56
2023-08-20T17:22:26.970Z,100909.03
2023-08-20T17:27:23.608Z,100906.47
2023-08-20T17:32:20.352Z,100913.47
2023-08-20T17:37:16.837Z,100917.56
2023-08-20T17:42:15.215Z,100916.06
2023-08-20T17:47:11.623Z,100916.72
2023-08-20T17:52:08.000Z,100919.94
2023-08-20T17:57:04.733Z,100926.78
2023-08-20T18:02:01.179Z,100930.97
2023-08-20T18:06:57.586Z,100931.53
2023-08-20T18:11:54.088Z,100935.97
2023-08-20T18:16:50.561Z,100938.81
2023-08-20T18:21:47.133Z,100943.66
2023-08-20T18:26:43.521Z,100952.63
2023-08-20T18:31:39.924Z,100948.19
2023-08-20T18:36:36.415Z,100951.56
2023-08-20T18:41:32.853Z,100957.78
2023-08-20T18:46:29.341Z,100958.78
2023-08-20T18:51:26.329Z,100967.81
2023-08-20T18:56:25.619Z,100979.56
2023-08-20T19:01:22.070Z,100994.72
2023-08-20T19:06:18.971Z,100994.16
2023-08-20T19:11:15.643Z,101001.06
2023-08-20T19:16:12.123Z,101010.94
2023-08-20T19:21:08.830Z,101011.41
2023-08-20T19:26:05.253Z,101016.81
2023-08-20T19:31:01.667Z,101020.59
2023-08-20T19:35:58.049Z,101031.31
2023-08-20T19:40:56.616Z,101034.38
2023-08-20T19:45:54.192Z,101039.81
2023-08-20T19:50:50.724Z,101050.22
2023-08-20T19:55:47.137Z,101046.34
2023-08-20T20:00:43.720Z,101046.00
2023-08-20T20:05:40.243Z,101036.88
2023-08-20T20:10:36.702Z,101044.28
2023-08-20T20:15:33.156Z,101043.63
2023-08-20T20:20:29.663Z,101048.06
2023-08-20T20:25:26.096Z,101043.66
2023-08-20T20:30:22.654Z,101048.06
2023-08-20T20:35:19.212Z,101043.66
2023-08-20T20:40:15.624Z,101052.41
2023-08-20T20:45:12.279Z,101045.66
2023-08-20T20:50:08.884Z,101034.00
2023-08-20T20:55:06.060Z,101039.22
2023-08-20T21:00:03.554Z,101039.06
2023-08-20T21:04:59.926Z,101037.56
2023-08-20T21:09:56.494Z,101033.16
2023-08-20T21:14:52.918Z,101040.56
2023-08-20T21:19:49.326Z,101039.22
2023-08-20T21:24:46.032Z,101050.19
2023-08-20T21:29:42.446Z,101050.03
2023-08-20T21:34:39.750Z,101050.03
2023-08-20T21:39:36.191Z,101057.44
2023-08-20T21:44:32.592Z,101051.00
2023-08-20T21:49:29.015Z,101046.88
2023-08-20T21:54:25.540Z,101046.22
2023-08-20T21:59:21.943Z,101056.16
2023-08-20T22:04:18.324Z,101054.75
2023-08-20T22:09:14.697Z,101064.28
2023-08-20T22:14:11.160Z,101058.19
2023-08-20T22:19:07.608Z,101056.13
2023-08-20T22:24:04.220Z,101040.88
2023-08-20T22:29:00.853Z,101046.88
2023-08-20T22:33:57.596Z,101045.56
2023-08-20T22:38:54.006Z,101043.72
2023-08-20T22:43:50.435Z,101041.00
2023-08-20T22:48:46.989Z,101037.94
2023-08-20T22:53:43.435Z,101045.75
2023-08-20T22:58:39.845Z,101036.38
2023-08-20T23:03:36.450Z,101037.38
2023-08-20T23:08:33.221Z,101038.50
2023-08-20T23:13:29.656Z,101049.06
2023-08-20T23:18:26.965Z,101042.38
2023-08-20T23:23:23.482Z,101038.38
2023-08-20T23:28:21.912Z,101043.97
2023-08-20T23:33:18.793Z,101036.94
2023-08-20T23:38:15.309Z,101037.44
2023-08-20T23:43:11.732Z,101036.94
2023-08-20T23:48:08.152Z,101040.75
2023-08-20T23:53:04.789Z,101023.59
2023-08-20T23:58:01.226Z,101017.47
